createdAt,value
2023-05-15T00:02:14.397Z,11.53
2023-05-15T00:04:41.278Z,15.00
2023-05-15T00:07:07.941Z,14.10
2023-05-15T00:09:34.427Z,14.23
2023-05-15T00:12:00.976Z,12.80
2023-05-15T00:14:27.619Z,15.00
2023-05-15T00:16:54.038Z,13.67
2023-05-15T00:19:20.957Z,13.27
2023-05-15T00:21:47.615Z,14.87
2023-05-15T00:24:14.076Z,13.60
2023-05-15T00:26:40.682Z,13.53
2023-05-15T00:29:07.197Z,13.73
2023-05-15T00:31:33.787Z,12.03
2023-05-15T00:34:00.506Z,13.20
2023-05-15T00:36:27.147Z,11.77
2023-05-15T00:38:53.986Z,12.27
2023-05-15T00:41:21.687Z,12.03
2023-05-15T00:43:49.884Z,11.50
2023-05-15T00:46:16.914Z,10.97
2023-05-15T00:48:43.918Z,11.77
2023-05-15T00:51:10.852Z,15.70
2023-05-15T00:53:38.623Z,13.70
2023-05-15T00:56:05.949Z,12.23
2023-05-15T00:58:32.488Z,12.17
2023-05-15T01:00:59.181Z,12.87
2023-05-15T01:03:26.111Z,13.77
2023-05-15T01:05:52.712Z,12.47
2023-05-15T01:08:21.009Z,12.57
2023-05-15T01:10:49.124Z,13.97
2023-05-15T01:13:15.938Z,13.27
2023-05-15T01:15:42.558Z,13.37
2023-05-15T01:18:09.181Z,12.87
2023-05-15T01:20:44.702Z,12.93
2023-05-15T01:23:15.812Z,13.07
2023-05-15T01:25:48.421Z,13.37
2023-05-15T01:28:18.857Z,13.10
2023-05-15T01:30:46.581Z,13.33
2023-05-15T01:33:28.652Z,13.13
2023-05-15T01:36:07.548Z,17.07
2023-05-15T01:38:39.161Z,14.03
2023-05-15T01:41:10.436Z,13.47
2023-05-15T01:43:39.161Z,13.53
2023-05-15T01:46:06.834Z,17.23
2023-05-15T01:48:33.896Z,14.33
2023-05-15T01:51:02.820Z,13.03
2023-05-15T01:53:33.637Z,14.73
2023-05-15T01:56:00.303Z,15.40
2023-05-15T01:58:27.022Z,15.10
2023-05-15T02:00:53.913Z,20.13
2023-05-15T02:03:21.200Z,17.17
2023-05-15T02:05:48.400Z,16.60
2023-05-15T02:08:15.640Z,15.50
2023-05-15T02:10:43.064Z,14.53
2023-05-15T02:13:09.996Z,16.30
2023-05-15T02:15:36.832Z,17.53
2023-05-15T02:18:03.422Z,16.33
2023-05-15T02:20:30.005Z,16.43
2023-05-15T02:22:56.527Z,16.70
2023-05-15T02:25:28.212Z,15.53
2023-05-15T02:28:00.140Z,14.07
2023-05-15T02:30:35.058Z,16.73
2023-05-15T02:33:20.242Z,15.20
2023-05-15T02:36:01.185Z,17.03
2023-05-15T02:38:33.210Z,15.77
2023-05-15T02:41:00.838Z,15.70
2023-05-15T02:43:27.900Z,15.00
2023-05-15T02:45:55.439Z,19.03
2023-05-15T02:48:22.355Z,14.20
2023-05-15T02:50:49.046Z,13.57
2023-05-15T02:53:16.204Z,14.87
2023-05-15T02:55:42.784Z,16.17
2023-05-15T02:58:09.798Z,18.33
2023-05-15T03:00:36.309Z,19.30
2023-05-15T03:03:02.872Z,16.20
2023-05-15T03:05:29.441Z,15.87
2023-05-15T03:07:56.977Z,20.83
2023-05-15T03:10:24.275Z,17.87
2023-05-15T03:12:50.876Z,16.73
2023-05-15T03:15:17.966Z,16.37
2023-05-15T03:17:44.859Z,17.03
2023-05-15T03:20:11.555Z,21.40
2023-05-15T03:22:38.182Z,16.60
2023-05-15T03:25:04.841Z,16.40
2023-05-15T03:27:31.569Z,15.87
2023-05-15T03:29:58.236Z,17.97
2023-05-15T03:32:24.791Z,15.03
2023-05-15T03:34:51.484Z,14.83
2023-05-15T03:37:18.089Z,17.47
2023-05-15T03:39:44.637Z,18.00
2023-05-15T03:42:11.370Z,19.70
2023-05-15T03:44:37.975Z,20.17
2023-05-15T03:47:04.759Z,20.43
2023-05-15T03:49:31.236Z,20.10
2023-05-15T03:51:57.945Z,18.53
2023-05-15T03:54:24.457Z,19.00
2023-05-15T03:56:51.018Z,21.03
2023-05-15T03:59:17.568Z,16.83
2023-05-15T04:01:59.393Z,18.90
2023-05-15T04:04:30.081Z,20.03
2023-05-15T04:06:56.635Z,18.90
2023-05-15T04:09:23.344Z,23.27
2023-05-15T04:11:49.957Z,22.50
2023-05-15T04:14:36.450Z,17.07
2023-05-15T04:17:14.497Z,18.27
2023-05-15T04:20:00.970Z,19.90
2023-05-15T04:22:47.501Z,18.43
2023-05-15T04:25:34.042Z,20.43
2023-05-15T04:28:19.887Z,21.03
2023-05-15T04:30:46.986Z,19.67
2023-05-15T04:33:13.671Z,18.77
2023-05-15T04:35:40.366Z,19.77
2023-05-15T04:38:07.045Z,18.63
2023-05-15T04:40:33.620Z,17.77
2023-05-15T04:43:00.730Z,21.37
2023-05-15T04:45:27.303Z,18.50
2023-05-15T04:47:53.964Z,19.60
2023-05-15T04:50:20.606Z,19.83
2023-05-15T04:52:47.179Z,17.87
2023-05-15T04:55:13.737Z,18.67
2023-05-15T04:57:40.602Z,19.30
2023-05-15T05:00:11.966Z,18.57
2023-05-15T05:02:39.172Z,19.00
2023-05-15T05:05:07.383Z,20.47
2023-05-15T05:07:34.495Z,20.27
2023-05-15T05:10:01.234Z,19.57
2023-05-15T05:12:28.106Z,20.13
2023-05-15T05:14:55.670Z,20.87
2023-05-15T05:17:22.736Z,21.37
2023-05-15T05:19:49.322Z,26.97
2023-05-15T05:22:15.841Z,19.30
2023-05-15T05:24:42.425Z,21.43
2023-05-15T05:27:09.021Z,20.67
2023-05-15T05:29:35.541Z,22.93
2023-05-15T05:32:02.258Z,20.40
2023-05-15T05:34:29.054Z,21.20
2023-05-15T05:36:56.033Z,19.17
2023-05-15T05:39:22.554Z,20.83
2023-05-15T05:41:49.266Z,21.43
2023-05-15T05:44:16.227Z,21.17
2023-05-15T05:46:42.877Z,21.90
2023-05-15T05:49:09.454Z,20.53
2023-05-15T05:51:39.249Z,21.77
2023-05-15T05:54:05.870Z,22.27
2023-05-15T05:56:32.960Z,26.57
2023-05-15T05:59:01.996Z,24.90
2023-05-15T06:01:29.146Z,22.97
2023-05-15T06:03:56.064Z,22.80
2023-05-15T06:06:23.030Z,22.83
2023-05-15T06:08:49.577Z,22.53
2023-05-15T06:11:16.172Z,21.90
2023-05-15T06:13:43.516Z,21.83
2023-05-15T06:16:10.580Z,22.67
2023-05-15T06:18:37.351Z,22.50
2023-05-15T06:21:04.669Z,23.03
2023-05-15T06:23:32.227Z,20.43
2023-05-15T06:25:59.058Z,23.87
2023-05-15T06:28:25.605Z,23.03
2023-05-15T06:30:52.980Z,22.97
2023-05-15T06:33:21.212Z,22.93
2023-05-15T06:35:48.905Z,22.87
2023-05-15T06:38:16.194Z,23.97
2023-05-15T06:40:42.773Z,22.77
2023-05-15T06:43:09.429Z,23.10
2023-05-15T06:45:36.086Z,24.60
2023-05-15T06:48:02.872Z,23.37
2023-05-15T06:50:29.506Z,26.37
2023-05-15T06:52:56.071Z,21.87
2023-05-15T06:55:22.707Z,23.57
2023-05-15T06:57:49.261Z,21.93
2023-05-15T07:00:16.191Z,22.50
2023-05-15T07:02:44.022Z,22.00
2023-05-15T07:05:11.405Z,28.10
2023-05-15T07:07:38.180Z,22.80
2023-05-15T07:10:04.999Z,23.40
2023-05-15T07:12:33.152Z,22.43
2023-05-15T07:15:00.012Z,21.57
2023-05-15T07:17:26.767Z,22.63
2023-05-15T07:19:54.860Z,22.60
2023-05-15T07:22:21.433Z,27.70
2023-05-15T07:24:47.997Z,20.60
2023-05-15T07:27:14.658Z,22.70
2023-05-15T07:29:41.184Z,24.93
2023-05-15T07:32:07.982Z,24.53
2023-05-15T07:34:34.671Z,22.07
2023-05-15T07:37:01.354Z,22.43
2023-05-15T07:39:27.959Z,19.33
2023-05-15T07:41:54.512Z,20.73
2023-05-15T07:44:22.494Z,18.67
2023-05-15T07:46:49.281Z,18.90
2023-05-15T07:49:15.843Z,20.33
2023-05-15T07:51:42.859Z,20.23
2023-05-15T07:54:09.513Z,17.70
2023-05-15T07:56:36.169Z,19.50
2023-05-15T07:59:02.851Z,18.90
2023-05-15T08:01:30.640Z,18.50
2023-05-15T08:03:58.695Z,18.57
2023-05-15T08:06:25.710Z,18.43
2023-05-15T08:08:52.266Z,18.57
2023-05-15T08:11:18.792Z,17.97
2023-05-15T08:13:45.531Z,17.80
2023-05-15T08:16:12.216Z,18.23
2023-05-15T08:18:38.864Z,18.60
2023-05-15T08:21:05.553Z,19.43
2023-05-15T08:23:32.022Z,17.27
2023-05-15T08:25:59.361Z,19.17
2023-05-15T08:28:25.906Z,18.87
2023-05-15T08:30:52.636Z,18.43
2023-05-15T08:33:19.156Z,19.17
2023-05-15T08:35:46.075Z,19.17
2023-05-15T08:38:12.579Z,18.20
2023-05-15T08:40:41.051Z,19.47
2023-05-15T08:43:15.221Z,17.40
2023-05-15T08:45:41.983Z,18.57
2023-05-15T08:48:14.494Z,18.07
2023-05-15T08:50:41.584Z,19.17
2023-05-15T08:53:08.221Z,17.90
2023-05-15T08:55:34.953Z,17.20
2023-05-15T08:58:01.519Z,16.33
2023-05-15T09:00:28.849Z,16.83
2023-05-15T09:02:55.580Z,15.93
2023-05-15T09:05:22.325Z,17.97
2023-05-15T09:07:49.249Z,17.60
2023-05-15T09:10:16.060Z,17.07
2023-05-15T09:12:44.523Z,19.67
2023-05-15T09:15:16.042Z,16.80
2023-05-15T09:17:43.277Z,17.50
2023-05-15T09:20:27.080Z,18.77
2023-05-15T09:22:53.755Z,15.90
2023-05-15T09:25:39.129Z,14.30
2023-05-15T09:28:06.715Z,15.57
2023-05-15T09:30:34.792Z,14.67
2023-05-15T09:33:05.456Z,16.17
2023-05-15T09:35:32.787Z,14.53
2023-05-15T09:38:02.920Z,14.73
2023-05-15T09:40:30.767Z,15.50
2023-05-15T09:42:58.016Z,13.00
2023-05-15T09:45:30.497Z,17.20
2023-05-15T09:47:59.920Z,15.57
2023-05-15T09:50:33.114Z,16.63
2023-05-15T09:52:59.983Z,14.20
2023-05-15T09:55:27.643Z,16.33
2023-05-15T09:58:08.229Z,19.63
2023-05-15T10:00:35.546Z,15.18
2023-05-15T10:03:05.703Z,17.02
2023-05-15T10:05:43.079Z,18.70
2023-05-15T10:08:10.809Z,16.58
2023-05-15T10:10:37.445Z,18.25
2023-05-15T10:13:05.878Z,16.33
2023-05-15T10:15:32.541Z,18.38
2023-05-15T10:17:59.629Z,17.13
2023-05-15T10:20:26.909Z,16.15
2023-05-15T10:22:55.881Z,17.73
2023-05-15T10:25:31.955Z,13.90
2023-05-15T10:27:58.877Z,13.00
2023-05-15T10:30:26.767Z,14.35
2023-05-15T10:32:53.923Z,16.10
2023-05-15T10:35:21.496Z,14.10
2023-05-15T10:37:48.451Z,13.83
2023-05-15T10:40:16.191Z,10.70
2023-05-15T10:42:43.734Z,11.07
2023-05-15T10:45:10.579Z,9.32
2023-05-15T10:47:41.276Z,10.95
2023-05-15T10:50:08.405Z,9.80
2023-05-15T10:52:38.753Z,12.13
2023-05-15T10:55:23.808Z,9.80
2023-05-15T10:57:50.593Z,9.48
2023-05-15T11:00:23.581Z,10.32
2023-05-15T11:02:53.868Z,9.85
2023-05-15T11:05:20.674Z,9.30
2023-05-15T11:08:07.443Z,8.43
2023-05-15T11:10:34.110Z,6.72
2023-05-15T11:13:01.901Z,6.20
2023-05-15T11:15:41.168Z,6.85
2023-05-15T11:18:08.276Z,6.65
2023-05-15T11:20:39.005Z,5.85
2023-05-15T11:23:05.836Z,6.95
2023-05-15T11:25:32.775Z,6.55
2023-05-15T11:27:59.634Z,7.80
2023-05-15T11:30:35.082Z,8.57
2023-05-15T11:33:04.365Z,6.85
2023-05-15T11:35:33.434Z,7.95
2023-05-15T11:38:02.554Z,8.20
2023-05-15T11:40:33.203Z,7.47
2023-05-15T11:43:03.908Z,10.68
2023-05-15T11:45:31.626Z,8.60
2023-05-15T11:48:00.341Z,11.75
2023-05-15T11:50:27.451Z,10.55
2023-05-15T11:52:54.440Z,8.57
2023-05-15T11:55:21.258Z,10.35
2023-05-15T11:57:47.780Z,12.98
2023-05-15T12:00:14.590Z,9.60
2023-05-15T12:02:41.401Z,12.65
2023-05-15T12:05:09.030Z,13.65
2023-05-15T12:07:39.733Z,12.65
2023-05-15T12:10:07.062Z,12.05
2023-05-15T12:12:35.294Z,11.20
2023-05-15T12:15:01.945Z,11.95
2023-05-15T12:17:28.522Z,12.52
2023-05-15T12:19:55.813Z,14.23
2023-05-15T12:22:22.430Z,12.77
2023-05-15T12:24:48.998Z,16.90
2023-05-15T12:27:16.619Z,15.55
2023-05-15T12:29:43.249Z,15.95
2023-05-15T12:32:10.064Z,18.57
2023-05-15T12:34:37.053Z,15.63
2023-05-15T12:37:03.835Z,15.03
2023-05-15T12:39:30.546Z,16.70
2023-05-15T12:41:57.968Z,19.37
2023-05-15T12:44:25.491Z,14.50
2023-05-15T12:46:53.936Z,15.77
2023-05-15T12:49:23.547Z,18.10
2023-05-15T12:51:50.275Z,18.07
2023-05-15T12:54:20.653Z,14.30
2023-05-15T12:56:48.467Z,13.83
2023-05-15T12:59:15.046Z,11.83
2023-05-15T13:01:44.799Z,14.80
2023-05-15T13:04:11.819Z,15.47
2023-05-15T13:06:46.328Z,13.97
2023-05-15T13:09:13.844Z,14.20
2023-05-15T13:11:43.834Z,14.37
2023-05-15T13:14:17.232Z,14.70
2023-05-15T13:16:44.975Z,11.77
2023-05-15T13:19:11.791Z,10.40
2023-05-15T13:21:38.568Z,8.80
2023-05-15T13:24:05.300Z,7.47
2023-05-15T13:26:31.797Z,8.15
2023-05-15T13:28:58.756Z,6.90
2023-05-15T13:31:26.082Z,10.18
2023-05-15T13:33:56.445Z,8.80
2023-05-15T13:36:23.570Z,6.25
2023-05-15T13:38:50.412Z,7.88
2023-05-15T13:41:17.098Z,8.10
2023-05-15T13:43:43.829Z,7.80
2023-05-15T13:46:10.568Z,6.88
2023-05-15T13:48:37.138Z,10.00
2023-05-15T13:51:03.702Z,10.65
2023-05-15T13:53:30.296Z,7.63
2023-05-15T13:55:57.130Z,7.05
2023-05-15T13:58:26.699Z,9.95
2023-05-15T14:00:53.865Z,11.93
2023-05-15T14:03:20.850Z,7.78
2023-05-15T14:05:47.449Z,7.82
2023-05-15T14:08:14.093Z,10.07
2023-05-15T14:10:40.726Z,7.93
2023-05-15T14:13:07.325Z,9.02
2023-05-15T14:15:33.808Z,8.65
2023-05-15T14:18:00.522Z,16.15
2023-05-15T14:20:27.490Z,10.35
2023-05-15T14:22:54.196Z,10.88
2023-05-15T14:25:20.821Z,9.43
2023-05-15T14:27:47.585Z,8.93
2023-05-15T14:30:14.577Z,7.38
2023-05-15T14:32:41.552Z,7.00
2023-05-15T14:35:08.209Z,7.43
2023-05-15T14:37:34.820Z,11.38
2023-05-15T14:40:01.352Z,10.90
2023-05-15T14:42:27.928Z,10.23
2023-05-15T14:44:54.628Z,8.88
2023-05-15T14:47:21.284Z,11.88
2023-05-15T14:49:47.909Z,9.80
2023-05-15T14:52:14.469Z,9.73
2023-05-15T14:54:40.977Z,8.73
2023-05-15T14:57:08.078Z,10.07
2023-05-15T14:59:34.835Z,12.07
2023-05-15T15:02:04.603Z,10.17
2023-05-15T15:04:34.175Z,8.97
2023-05-15T15:07:03.744Z,11.63
2023-05-15T15:09:30.541Z,11.10
2023-05-15T15:11:57.105Z,9.70
2023-05-15T15:14:24.682Z,7.97
2023-05-15T15:16:51.317Z,10.13
2023-05-15T15:19:19.950Z,10.17
2023-05-15T15:21:47.061Z,10.17
2023-05-15T15:24:13.625Z,10.40
2023-05-15T15:26:40.242Z,11.23
2023-05-15T15:29:07.473Z,12.63
2023-05-15T15:31:34.794Z,10.27
2023-05-15T15:34:04.441Z,11.03
2023-05-15T15:36:32.041Z,14.90
2023-05-15T15:38:58.876Z,11.60
2023-05-15T15:41:25.872Z,11.43
2023-05-15T15:43:52.686Z,11.90
2023-05-15T15:46:20.393Z,12.20
2023-05-15T15:48:47.245Z,11.73
2023-05-15T15:51:14.696Z,13.20
2023-05-15T15:53:41.529Z,10.53
2023-05-15T15:56:08.266Z,12.73
2023-05-15T15:58:34.927Z,12.97
2023-05-15T16:01:02.089Z,10.30
2023-05-15T16:03:28.900Z,11.77
2023-05-15T16:06:00.168Z,10.67
2023-05-15T16:08:27.025Z,12.27
2023-05-15T16:10:54.380Z,14.47
2023-05-15T16:13:20.935Z,13.93
2023-05-15T16:15:47.525Z,11.73
2023-05-15T16:18:14.036Z,15.37
2023-05-15T16:20:41.134Z,10.63
2023-05-15T16:23:09.512Z,9.13
2023-05-15T16:25:36.513Z,11.53
2023-05-15T16:28:03.177Z,13.40
2023-05-15T16:30:40.568Z,15.23
2023-05-15T16:33:14.413Z,10.87
2023-05-15T16:35:41.029Z,12.23
2023-05-15T16:38:07.693Z,9.67
2023-05-15T16:40:34.228Z,10.47
2023-05-15T16:43:00.858Z,13.35
2023-05-15T16:45:27.400Z,14.17
2023-05-15T16:47:54.357Z,8.60
2023-05-15T16:50:21.189Z,10.77
2023-05-15T16:52:48.283Z,9.32
2023-05-15T16:55:15.928Z,10.03
2023-05-15T16:57:43.018Z,9.43
2023-05-15T17:00:10.384Z,7.83
2023-05-15T17:02:37.173Z,10.63
2023-05-15T17:05:04.530Z,10.03
2023-05-15T17:07:31.185Z,8.80
2023-05-15T17:09:57.754Z,10.20
2023-05-15T17:12:24.408Z,7.93
2023-05-15T17:14:51.073Z,7.80
2023-05-15T17:17:17.586Z,10.23
2023-05-15T17:19:44.301Z,8.63
2023-05-15T17:22:11.008Z,7.97
2023-05-15T17:24:50.037Z,9.10
2023-05-15T17:27:18.549Z,7.13
2023-05-15T17:29:45.726Z,10.67
2023-05-15T17:32:12.613Z,6.37
2023-05-15T17:34:39.472Z,6.60
2023-05-15T17:37:06.147Z,6.67
2023-05-15T17:39:32.753Z,8.27
2023-05-15T17:41:59.275Z,13.67
2023-05-15T17:44:29.998Z,6.93
2023-05-15T17:46:59.871Z,7.63
2023-05-15T17:49:26.608Z,7.93
2023-05-15T17:51:54.188Z,11.30
2023-05-15T17:54:20.863Z,6.70
2023-05-15T17:56:48.023Z,5.80
2023-05-15T17:59:14.942Z,6.83
2023-05-15T18:01:41.654Z,5.20
2023-05-15T18:04:08.694Z,5.57
2023-05-15T18:06:35.489Z,5.47
2023-05-15T18:09:02.978Z,5.77
2023-05-15T18:11:29.551Z,4.83
2023-05-15T18:13:56.413Z,6.60
2023-05-15T18:16:23.511Z,7.07
2023-05-15T18:18:52.109Z,7.03
2023-05-15T18:21:19.107Z,5.83
2023-05-15T18:23:46.676Z,6.93
2023-05-15T18:26:13.211Z,5.70
2023-05-15T18:28:40.347Z,7.30
2023-05-15T18:31:07.002Z,5.80
2023-05-15T18:33:34.006Z,6.77
2023-05-15T18:36:01.001Z,8.60
2023-05-15T18:38:27.590Z,7.80
2023-05-15T18:40:55.109Z,7.50
2023-05-15T18:43:21.625Z,8.03
2023-05-15T18:45:48.643Z,8.20
2023-05-15T18:48:15.203Z,7.87
2023-05-15T18:50:41.764Z,8.30
2023-05-15T18:53:08.350Z,8.87
2023-05-15T18:55:35.346Z,9.23
2023-05-15T18:58:01.861Z,11.73
2023-05-15T19:00:37.918Z,11.13
2023-05-15T19:03:06.336Z,11.20
2023-05-15T19:05:34.297Z,12.17
2023-05-15T19:08:01.499Z,13.50
2023-05-15T19:10:29.494Z,13.53
2023-05-15T19:12:56.881Z,11.60
2023-05-15T19:15:23.559Z,11.50
2023-05-15T19:17:50.166Z,13.47
2023-05-15T19:20:16.942Z,12.63
2023-05-15T19:22:43.496Z,13.53
2023-05-15T19:25:10.766Z,13.43
2023-05-15T19:27:37.693Z,15.43
2023-05-15T19:30:04.797Z,15.83
2023-05-15T19:32:31.730Z,14.30
2023-05-15T19:34:58.441Z,15.03
2023-05-15T19:37:24.942Z,16.40
2023-05-15T19:39:51.439Z,16.20
2023-05-15T19:42:17.998Z,14.60
2023-05-15T19:44:44.645Z,16.37
2023-05-15T19:47:11.264Z,17.97
2023-05-15T19:49:37.817Z,16.23
2023-05-15T19:52:04.458Z,16.47
2023-05-15T19:54:31.022Z,14.70
2023-05-15T19:56:58.654Z,17.20
2023-05-15T19:59:25.213Z,18.20
2023-05-15T20:01:51.798Z,18.13
2023-05-15T20:04:19.181Z,17.53
2023-05-15T20:06:46.162Z,18.57
2023-05-15T20:09:13.436Z,16.00
2023-05-15T20:11:40.055Z,16.93
2023-05-15T20:14:06.604Z,16.37
2023-05-15T20:16:33.280Z,17.37
2023-05-15T20:18:59.976Z,15.87
2023-05-15T20:21:26.839Z,15.73
2023-05-15T20:23:53.924Z,15.43
2023-05-15T20:26:22.320Z,17.67
2023-05-15T20:28:49.789Z,15.73
2023-05-15T20:31:16.539Z,14.13
2023-05-15T20:33:43.049Z,13.70
2023-05-15T20:36:09.682Z,14.37
2023-05-15T20:38:37.162Z,13.43
2023-05-15T20:41:04.054Z,17.17
2023-05-15T20:43:30.825Z,18.27
2023-05-15T20:45:57.614Z,18.47
2023-05-15T20:48:24.226Z,13.40
2023-05-15T20:50:54.256Z,13.93
2023-05-15T20:53:21.413Z,14.07
2023-05-15T20:55:48.608Z,14.47
2023-05-15T20:58:15.433Z,14.03
2023-05-15T21:00:42.343Z,14.80
2023-05-15T21:03:09.697Z,13.93
2023-05-15T21:05:36.605Z,14.30
2023-05-15T21:08:03.361Z,13.23
2023-05-15T21:10:29.997Z,13.57
2023-05-15T21:12:59.136Z,13.63
2023-05-15T21:15:26.111Z,14.23
2023-05-15T21:17:52.788Z,12.70
2023-05-15T21:20:19.589Z,14.03
2023-05-15T21:22:46.217Z,14.50
2023-05-15T21:25:12.850Z,13.80
2023-05-15T21:27:39.431Z,15.80
2023-05-15T21:30:06.312Z,14.07
2023-05-15T21:32:32.917Z,12.80
2023-05-15T21:34:59.424Z,16.03
2023-05-15T21:37:26.032Z,13.63
2023-05-15T21:39:52.569Z,12.53
2023-05-15T21:42:19.133Z,10.83
2023-05-15T21:44:45.664Z,11.57
2023-05-15T21:47:12.148Z,11.57
2023-05-15T21:49:38.685Z,12.30
2023-05-15T21:52:05.180Z,10.67
2023-05-15T21:54:31.726Z,10.87
2023-05-15T21:56:59.229Z,11.37
2023-05-15T21:59:25.971Z,9.80
2023-05-15T22:01:52.516Z,11.03
2023-05-15T22:04:19.108Z,13.97
2023-05-15T22:06:45.732Z,10.37
2023-05-15T22:09:12.217Z,11.20
2023-05-15T22:11:38.791Z,13.13
2023-05-15T22:14:06.212Z,11.70
2023-05-15T22:16:33.371Z,11.30
2023-05-15T22:18:59.983Z,11.50
2023-05-15T22:21:28.304Z,12.47
2023-05-15T22:23:55.095Z,14.40
2023-05-15T22:26:21.724Z,12.43
2023-05-15T22:28:48.885Z,14.10
2023-05-15T22:31:15.821Z,14.27
2023-05-15T22:33:42.428Z,13.80
2023-05-15T22:36:09.880Z,11.47
2023-05-15T22:38:36.492Z,11.73
2023-05-15T22:41:03.036Z,14.53
2023-05-15T22:43:29.668Z,15.23
2023-05-15T22:45:56.255Z,12.63
2023-05-15T22:48:23.270Z,13.70
2023-05-15T22:50:49.832Z,13.90
2023-05-15T22:53:16.457Z,13.60
2023-05-15T22:55:43.132Z,15.60
2023-05-15T22:58:09.656Z,14.90
2023-05-15T23:00:36.288Z,16.70
2023-05-15T23:03:02.815Z,15.87
2023-05-15T23:05:29.575Z,12.83
2023-05-15T23:07:56.180Z,16.13
2023-05-15T23:10:22.820Z,12.30
2023-05-15T23:12:49.307Z,12.50
2023-05-15T23:15:16.432Z,14.33
2023-05-15T23:17:43.300Z,12.67
2023-05-15T23:20:18.838Z,11.23
2023-05-15T23:22:45.473Z,14.50
2023-05-15T23:25:12.062Z,14.77
2023-05-15T23:27:38.732Z,12.03
2023-05-15T23:30:06.027Z,11.67
2023-05-15T23:32:32.595Z,10.37
2023-05-15T23:34:59.474Z,12.67
2023-05-15T23:37:26.060Z,13.30
2023-05-15T23:39:55.255Z,11.00
2023-05-15T23:42:22.943Z,13.90
2023-05-15T23:44:51.272Z,11.90
2023-05-15T23:47:17.835Z,10.10
2023-05-15T23:49:44.375Z,9.80
2023-05-15T23:52:11.227Z,9.43
2023-05-15T23:54:37.788Z,8.97
2023-05-15T23:57:04.457Z,9.27
2023-05-15T23:59:31.170Z,8.13
